KESN/ESN METAR and TAF weather

Enter ICAO airport designator
Station Type Date Time Source
KESN METAR 2021/01/16 03:15 UTC NOAA

KESN 160315Z AUTO 13004KT 5SM RA BKN013 OVC022 08/07 A2973 RMK AO2 P0003 T00800073


Station Type Date Time Source
KESN Decoded METAR 2021/01/16 03:15 UTC NOAA

Easton / Newman Field, MD, United States (KESN) 38-48N 076-04W
Jan 15, 2021 - 10:15 PM EST / 2021.01.16 0315 UTC
Wind: from the SE (130 degrees) at 5 MPH (4 KT):0
Visibility: 5 mile(s):0
Sky conditions: overcast
Weather: rain
Precipitation last hour: 0.03 inches
Temperature: 46.4 F (8.0 C)
Dew Point: 45.1 F (7.3 C)
Relative Humidity: 95%
Pressure (altimeter): 29.73 in. Hg (1006 hPa)
ob: KESN 160315Z AUTO 13004KT 5SM RA BKN013 OVC022 08/07 A2973 RMK AO2 P0003 T00800073
cycle: 3

Station Type Date Time Source
KESN TAF UTC NOAA

Error!

Example: see airport list